Time,TemperatureF,DewpointF,PressureIn,WindDirection,WindDirectionDegrees,WindSpeedMPH,WindSpeedGustMPH,Humidity,HourlyPrecipIn,Conditions,Clouds,dailyrainin,SoftwareType,DateUTC
2013-01-30 00:09:00,55.5,32.0,29.68,WSW,249,0.0,-999.0,41,-99.99,,,0.32,weatherlink.com 1.10,2013-01-30 06:09:00,
2013-01-30 00:24:00,55.1,32.0,29.68,SW,225,0.0,-999.0,41,-99.99,,,0.32,weatherlink.com 1.10,2013-01-30 06:24:00,
2013-01-30 00:40:00,54.7,31.0,29.68,WSW,257,5.0,-999.0,40,-99.99,,,0.00,weatherlink.com 1.10,2013-01-30 06:40:00,
2013-01-30 00:55:00,54.6,31.0,29.68,WSW,248,0.0,-999.0,40,-99.99,,,0.00,weatherlink.com 1.10,2013-01-30 06:55:00,
2013-01-30 01:09:00,54.0,31.0,29.67,SW,217,0.0,-999.0,41,-99.99,,,0.00,weatherlink.com 1.10,2013-01-30 07:09:00,
2013-01-30 01:25:00,53.5,31.0,29.68,WSW,240,0.0,-999.0,42,-99.99,,,0.00,weatherlink.com 1.10,2013-01-30 07:25:00,
2013-01-30 01:39:00,52.9,30.0,29.66,WSW,240,0.0,-999.0,42,-99.99,,,0.00,weatherlink.com 1.10,2013-01-30 07:39:00,
2013-01-30 01:55:00,52.3,31.0,29.69,SW,228,0.0,-999.0,44,-99.99,,,0.00,weatherlink.com 1.10,2013-01-30 07:55:00,
2013-01-30 02:10:00,51.8,30.0,29.69,WSW,240,3.0,-999.0,44,-99.99,,,0.00,weatherlink.com 1.10,2013-01-30 08:10:00,
2013-01-30 02:25:00,51.8,30.0,29.68,WSW,250,0.0,-999.0,43,-99.99,,,0.00,weatherlink.com 1.10,2013-01-30 08:25:00,
2013-01-30 02:40:00,51.4,29.0,29.69,WSW,244,0.0,-999.0,42,-99.99,,,0.00,weatherlink.com 1.10,2013-01-30 08:40:00,
2013-01-30 02:55:00,50.9,28.0,29.69,WSW,251,1.0,-999.0,42,-99.99,,,0.00,weatherlink.com 1.10,2013-01-30 08:55:00,
2013-01-30 03:10:00,50.7,29.0,29.69,WSW,243,0.0,-999.0,43,-99.99,,,0.00,weatherlink.com 1.10,2013-01-30 09:10:00,
2013-01-30 03:25:00,49.9,31.0,29.70,West,260,4.0,-999.0,49,-99.99,,,0.00,weatherlink.com 1.10,2013-01-30 09:25:00,
2013-01-30 03:40:00,48.6,34.0,29.71,West,268,0.0,-999.0,57,-99.99,,,0.00,weatherlink.com 1.10,2013-01-30 09:40:00,
2013-01-30 03:55:00,47.2,37.0,29.72,West,259,1.0,-999.0,68,-99.99,,,0.00,weatherlink.com 1.10,2013-01-30 09:55:00,
2013-01-30 04:10:00,46.1,38.0,29.73,WSW,249,0.0,-999.0,72,-99.99,,,0.00,weatherlink.com 1.10,2013-01-30 10:10:00,
2013-01-30 04:25:00,45.3,37.0,29.73,WSW,252,10.0,-999.0,74,-99.99,,,0.00,weatherlink.com 1.10,2013-01-30 10:25:00,
2013-01-30 04:40:00,45.1,37.0,29.76,WNW,295,3.0,-999.0,74,-99.99,,,0.00,weatherlink.com 1.10,2013-01-30 10:40:00,
2013-01-30 04:55:00,45.3,36.0,29.76,West,277,2.0,-999.0,71,-99.99,,,0.00,weatherlink.com 1.10,2013-01-30 10:55:00,
2013-01-30 05:10:00,45.0,36.0,29.77,West,260,2.0,-999.0,70,-99.99,,,0.00,weatherlink.com 1.10,2013-01-30 11:10:00,
2013-01-30 05:25:00,44.6,35.0,29.78,WSW,238,2.0,-999.0,70,-99.99,,,0.00,weatherlink.com 1.10,2013-01-30 11:25:00,
2013-01-30 05:40:00,44.2,35.0,29.76,West,271,3.0,-999.0,69,-99.99,,,0.00,weatherlink.com 1.10,2013-01-30 11:40:00,
2013-01-30 05:55:00,44.0,34.0,29.81,West,275,0.0,-999.0,68,-99.99,,,0.00,weatherlink.com 1.10,2013-01-30 11:55:00,
2013-01-30 06:10:00,43.8,34.0,29.80,West,276,0.0,-999.0,68,-99.99,,,0.00,weatherlink.com 1.10,2013-01-30 12:10:00,
2013-01-30 06:25:00,43.7,33.0,29.82,WNW,286,8.0,-999.0,67,-99.99,,,0.00,weatherlink.com 1.10,2013-01-30 12:25:00,
2013-01-30 06:40:00,43.6,33.0,29.83,WSW,246,1.0,-999.0,67,-99.99,,,0.00,weatherlink.com 1.10,2013-01-30 12:40:00,
2013-01-30 06:56:00,43.4,33.0,29.85,West,273,2.0,-999.0,66,-99.99,,,0.00,weatherlink.com 1.10,2013-01-30 12:56:00,
2013-01-30 07:10:00,43.0,32.0,29.85,WSW,258,4.0,-999.0,65,-99.99,,,0.00,weatherlink.com 1.10,2013-01-30 13:10:00,
2013-01-30 07:25:00,42.6,31.0,29.84,WSW,252,10.0,-999.0,63,-99.99,,,0.00,weatherlink.com 1.10,2013-01-30 13:25:00,
2013-01-30 07:41:00,42.7,30.0,29.88,WSW,245,2.0,-999.0,62,-99.99,,,0.00,weatherlink.com 1.10,2013-01-30 13:41:00,
2013-01-30 07:56:00,42.8,30.0,29.90,NW,317,0.0,-999.0,62,-99.99,,,0.00,weatherlink.com 1.10,2013-01-30 13:56:00,
2013-01-30 08:11:00,42.8,31.0,29.91,WSW,250,4.0,-999.0,64,-99.99,,,0.00,weatherlink.com 1.10,2013-01-30 14:11:00,
2013-01-30 08:26:00,42.8,32.0,29.92,West,278,2.0,-999.0,65,-99.99,,,0.00,weatherlink.com 1.10,2013-01-30 14:26:00,
2013-01-30 08:41:00,42.9,32.0,29.93,NNW,331,6.0,-999.0,66,-99.99,,,0.00,weatherlink.com 1.10,2013-01-30 14:41:00,
2013-01-30 08:56:00,43.0,30.0,29.95,West,269,13.0,-999.0,61,-99.99,,,0.00,weatherlink.com 1.10,2013-01-30 14:56:00,
2013-01-30 09:11:00,43.4,30.0,29.96,WSW,247,2.0,-999.0,59,-99.99,,,0.00,weatherlink.com 1.10,2013-01-30 15:11:00,
2013-01-30 09:26:00,43.6,29.0,29.97,SW,225,7.0,-999.0,56,-99.99,,,0.00,weatherlink.com 1.10,2013-01-30 15:26:00,
2013-01-30 09:41:00,43.5,29.0,29.99,SW,232,0.0,-999.0,57,-99.99,,,0.00,weatherlink.com 1.10,2013-01-30 15:41:00,
2013-01-30 09:56:00,43.3,29.0,30.00,WSW,243,7.0,-999.0,57,-99.99,,,0.00,weatherlink.com 1.10,2013-01-30 15:56:00,
2013-01-30 10:11:00,43.4,30.0,30.00,North,5,1.0,-999.0,59,-99.99,,,0.00,weatherlink.com 1.10,2013-01-30 16:11:00,
2013-01-30 10:26:00,44.1,30.0,30.01,SW,232,2.0,-999.0,57,-99.99,,,0.00,weatherlink.com 1.10,2013-01-30 16:26:00,
2013-01-30 10:41:00,44.7,29.0,30.02,SW,229,4.0,-999.0,55,-99.99,,,0.00,weatherlink.com 1.10,2013-01-30 16:41:00,
2013-01-30 10:56:00,45.7,30.0,30.02,West,263,4.0,-999.0,55,-99.99,,,0.00,weatherlink.com 1.10,2013-01-30 16:56:00,
2013-01-30 11:11:00,46.0,30.0,30.02,WSW,252,6.0,-999.0,53,-99.99,,,0.00,weatherlink.com 1.10,2013-01-30 17:11:00,
2013-01-30 11:26:00,46.6,30.0,30.03,West,272,2.0,-999.0,53,-99.99,,,0.00,weatherlink.com 1.10,2013-01-30 17:26:00,
2013-01-30 11:42:00,47.2,30.0,30.03,WNW,298,5.0,-999.0,51,-99.99,,,0.00,weatherlink.com 1.10,2013-01-30 17:42:00,
2013-01-30 11:57:00,46.7,29.0,30.04,WSW,251,10.0,-999.0,51,-99.99,,,0.00,weatherlink.com 1.10,2013-01-30 17:57:00,
2013-01-30 12:12:00,48.1,30.0,30.03,ENE,62,1.0,-999.0,49,-99.99,,,0.00,weatherlink.com 1.10,2013-01-30 18:12:00,
2013-01-30 12:26:00,47.9,29.0,30.03,West,260,7.0,-999.0,49,-99.99,,,0.00,weatherlink.com 1.10,2013-01-30 18:26:00,
2013-01-30 12:41:00,48.1,30.0,30.03,ENE,68,2.0,-999.0,49,-99.99,,,0.00,weatherlink.com 1.10,2013-01-30 18:41:00,
2013-01-30 12:56:00,48.7,29.0,30.03,West,273,6.0,-999.0,47,-99.99,,,0.00,weatherlink.com 1.10,2013-01-30 18:56:00,
2013-01-30 13:12:00,48.6,27.0,30.02,WSW,250,5.0,-999.0,44,-99.99,,,0.00,weatherlink.com 1.10,2013-01-30 19:12:00,
2013-01-30 13:26:00,49.1,28.0,30.02,SW,226,6.0,-999.0,45,-99.99,,,0.00,weatherlink.com 1.10,2013-01-30 19:26:00,
2013-01-30 13:42:00,49.5,27.0,30.02,West,278,6.0,-999.0,42,-99.99,,,0.00,weatherlink.com 1.10,2013-01-30 19:42:00,
2013-01-30 13:56:00,49.2,26.0,30.02,NNE,17,0.0,-999.0,40,-99.99,,,0.00,weatherlink.com 1.10,2013-01-30 19:56:00,
2013-01-30 14:11:00,50.3,26.0,30.02,West,265,0.0,-999.0,39,-99.99,,,0.00,weatherlink.com 1.10,2013-01-30 20:11:00,
2013-01-30 14:26:00,50.8,25.0,30.02,WSW,241,6.0,-999.0,37,-99.99,,,0.00,weatherlink.com 1.10,2013-01-30 20:26:00,
2013-01-30 14:41:00,51.5,25.0,30.02,WSW,254,3.0,-999.0,36,-99.99,,,0.00,weatherlink.com 1.10,2013-01-30 20:41:00,
2013-01-30 14:56:00,51.5,25.0,30.03,WSW,250,7.0,-999.0,36,-99.99,,,0.00,weatherlink.com 1.10,2013-01-30 20:56:00,
2013-01-30 15:11:00,51.5,25.0,30.03,WSW,250,4.0,-999.0,36,-99.99,,,0.00,weatherlink.com 1.10,2013-01-30 21:11:00,
2013-01-30 15:26:00,51.7,25.0,30.04,WNW,300,5.0,-999.0,35,-99.99,,,0.00,weatherlink.com 1.10,2013-01-30 21:26:00,
2013-01-30 15:41:00,51.5,25.0,30.04,South,176,0.0,-999.0,35,-99.99,,,0.00,weatherlink.com 1.10,2013-01-30 21:41:00,
2013-01-30 15:57:00,51.2,24.0,30.04,SW,236,0.0,-999.0,34,-99.99,,,0.00,weatherlink.com 1.10,2013-01-30 21:57:00,
2013-01-30 16:11:00,51.1,25.0,30.05,West,262,5.0,-999.0,36,-99.99,,,0.00,weatherlink.com 1.10,2013-01-30 22:11:00,
2013-01-30 16:26:00,51.3,24.0,30.06,WSW,237,3.0,-999.0,35,-99.99,,,0.00,weatherlink.com 1.10,2013-01-30 22:26:00,
2013-01-30 16:41:00,51.3,25.0,30.07,West,259,5.0,-999.0,36,-99.99,,,0.00,weatherlink.com 1.10,2013-01-30 22:41:00,
2013-01-30 16:56:00,50.2,25.0,30.07,WNW,286,0.0,-999.0,38,-99.99,,,0.00,weatherlink.com 1.10,2013-01-30 22:56:00,
2013-01-30 17:12:00,49.9,24.0,30.08,SW,235,9.0,-999.0,37,-99.99,,,0.00,weatherlink.com 1.10,2013-01-30 23:12:00,
2013-01-30 17:27:00,50.0,24.0,30.08,WSW,244,0.0,-999.0,36,-99.99,,,0.00,weatherlink.com 1.10,2013-01-30 23:27:00,
2013-01-30 17:42:00,49.7,24.0,30.08,WSW,249,0.0,-999.0,36,-99.99,,,0.00,weatherlink.com 1.10,2013-01-30 23:42:00,
2013-01-30 17:57:00,49.0,23.0,30.08,WSW,249,0.0,-999.0,36,-99.99,,,0.00,weatherlink.com 1.10,2013-01-30 23:57:00,
2013-01-30 18:12:00,48.6,23.0,30.10,WSW,252,0.0,-999.0,37,-99.99,,,0.00,weatherlink.com 1.10,2013-01-31 00:12:00,
2013-01-30 18:27:00,48.3,22.0,30.11,WSW,253,0.0,-999.0,36,-99.99,,,0.00,weatherlink.com 1.10,2013-01-31 00:27:00,
2013-01-30 18:42:00,48.0,22.0,30.11,WSW,254,0.0,-999.0,36,-99.99,,,0.00,weatherlink.com 1.10,2013-01-31 00:42:00,
2013-01-30 18:57:00,47.5,23.0,30.11,West,263,0.0,-999.0,38,-99.99,,,0.00,weatherlink.com 1.10,2013-01-31 00:57:00,
2013-01-30 19:12:00,47.1,23.0,30.11,West,264,0.0,-999.0,39,-99.99,,,0.00,weatherlink.com 1.10,2013-01-31 01:12:00,
2013-01-30 19:27:00,46.6,23.0,30.12,West,264,0.0,-999.0,39,-99.99,,,0.00,weatherlink.com 1.10,2013-01-31 01:27:00,
2013-01-30 19:42:00,46.2,24.0,30.12,West,264,0.0,-999.0,41,-99.99,,,0.00,weatherlink.com 1.10,2013-01-31 01:42:00,
2013-01-30 19:57:00,45.7,24.0,30.12,West,264,0.0,-999.0,42,-99.99,,,0.00,weatherlink.com 1.10,2013-01-31 01:57:00,
2013-01-30 20:12:00,45.4,24.0,30.11,West,264,0.0,-999.0,43,-99.99,,,0.00,weatherlink.com 1.10,2013-01-31 02:12:00,
2013-01-30 20:27:00,44.9,25.0,30.12,West,264,0.0,-999.0,45,-99.99,,,0.00,weatherlink.com 1.10,2013-01-31 02:27:00,
2013-01-30 20:42:00,43.4,26.0,30.12,West,264,0.0,-999.0,50,-99.99,,,0.00,weatherlink.com 1.10,2013-01-31 02:42:00,
2013-01-30 20:57:00,42.0,27.0,30.13,West,264,0.0,-999.0,55,-99.99,,,0.00,weatherlink.com 1.10,2013-01-31 02:57:00,
2013-01-30 21:12:00,40.9,27.0,30.13,West,264,0.0,-999.0,59,-99.99,,,0.00,weatherlink.com 1.10,2013-01-31 03:12:00,
2013-01-30 21:27:00,40.2,28.0,30.13,West,264,0.0,-999.0,61,-99.99,,,0.00,weatherlink.com 1.10,2013-01-31 03:27:00,
2013-01-30 21:42:00,39.9,28.0,30.13,West,264,0.0,-999.0,62,-99.99,,,0.00,weatherlink.com 1.10,2013-01-31 03:42:00,
2013-01-30 21:57:00,39.4,28.0,30.13,West,264,0.0,-999.0,64,-99.99,,,0.00,weatherlink.com 1.10,2013-01-31 03:57:00,
2013-01-30 22:12:00,39.2,27.0,30.14,West,264,0.0,-999.0,63,-99.99,,,0.00,weatherlink.com 1.10,2013-01-31 04:12:00,
2013-01-30 22:27:00,39.2,28.0,30.13,West,264,0.0,-999.0,65,-99.99,,,0.00,weatherlink.com 1.10,2013-01-31 04:27:00,
2013-01-30 22:42:00,38.9,28.0,30.13,West,264,0.0,-999.0,65,-99.99,,,0.00,weatherlink.com 1.10,2013-01-31 04:42:00,
2013-01-30 22:57:00,38.2,27.0,30.13,West,264,0.0,-999.0,65,-99.99,,,0.00,weatherlink.com 1.10,2013-01-31 04:57:00,
2013-01-30 23:12:00,37.7,28.0,30.13,West,264,0.0,-999.0,67,-99.99,,,0.00,weatherlink.com 1.10,2013-01-31 05:12:00,
2013-01-30 23:27:00,38.7,29.0,30.13,West,264,0.0,-999.0,67,-99.99,,,0.00,weatherlink.com 1.10,2013-01-31 05:27:00,
2013-01-30 23:42:00,38.0,29.0,30.12,West,264,0.0,-999.0,69,-99.99,,,0.00,weatherlink.com 1.10,2013-01-31 05:42:00,
2013-01-30 23:57:00,37.9,29.0,30.12,West,264,0.0,-999.0,70,-99.99,,,0.00,weatherlink.com 1.10,2013-01-31 05:57:00,